Time;durP1;ratioP1;P1;durP2;ratioP2;P2;SDS_P1;SDS_P2;PMS_P1;PMS_P2;Temp;Humidity;BMP_temperature;BMP_pressure;BME280_temperature;BME280_humidity;BME280_pressure;Samples;Min_cycle;Max_cycle;Signal;HPM_P1;HPM_P2
2021/06/06 00:00:30;;;;;;;9.90;8.90;;;435.60;2355.20;;;;;;4977293;28;20114;-83
2021/06/06 00:02:56;;;;;;;11.10;9.10;;;435.60;2355.20;;;;;;4978696;28;20031;-82
2021/06/06 00:05:27;;;;;;;9.25;8.30;;;435.80;2355.20;;;;;;4977494;28;20058;-83
2021/06/06 00:07:53;;;;;;;12.48;9.10;;;435.80;2355.20;;;;;;4977455;28;20034;-83
2021/06/06 00:10:19;;;;;;;16.80;10.52;;;435.40;2355.20;;;;;;4977243;28;20026;-83
2021/06/06 00:12:45;;;;;;;13.93;11.18;;;435.50;2355.20;;;;;;4976931;28;20023;-83
2021/06/06 00:15:14;;;;;;;17.15;11.40;;;435.50;2355.20;;;;;;4978213;28;20030;-82
2021/06/06 00:17:40;;;;;;;14.38;10.65;;;435.30;2355.20;;;;;;4977036;28;20027;-83
2021/06/06 00:20:10;;;;;;;11.07;9.18;;;435.40;2355.20;;;;;;4977184;28;20430;-83
2021/06/06 00:22:36;;;;;;;14.02;9.63;;;435.20;2355.20;;;;;;4977027;28;20120;-83
2021/06/06 00:25:09;;;;;;;12.68;10.02;;;435.20;2355.20;;;;;;4977118;28;20461;-82
2021/06/06 00:27:35;;;;;;;13.63;10.02;;;435.30;2355.20;;;;;;4977792;28;20027;-82
2021/06/06 00:30:01;;;;;;;11.70;9.23;;;435.40;2355.20;;;;;;4978417;28;20034;-81
2021/06/06 00:32:27;;;;;;;11.00;8.68;;;435.30;2355.20;;;;;;4978562;28;20139;-83
2021/06/06 00:34:53;;;;;;;13.88;9.32;;;435.20;2355.20;;;;;;4976526;28;20487;-82
2021/06/06 00:37:19;;;;;;;10.00;8.35;;;435.30;2355.20;;;;;;4993089;28;20027;-83
2021/06/06 00:39:44;;;;;;;12.82;9.15;;;435.40;2355.20;;;;;;4976942;28;20023;-83
2021/06/06 00:42:12;;;;;;;11.93;8.95;;;435.50;2355.20;;;;;;4976605;28;20027;-83
2021/06/06 00:44:38;;;;;;;10.35;8.35;;;435.50;2355.20;;;;;;4976412;28;20098;-82
2021/06/06 00:47:04;;;;;;;10.45;8.45;;;435.40;2355.20;;;;;;4976456;28;20505;-82
2021/06/06 00:49:30;;;;;;;13.18;9.18;;;435.50;2355.20;;;;;;4976210;28;20034;-82
2021/06/06 00:51:58;;;;;;;12.93;9.20;;;435.50;2355.20;;;;;;4976550;28;20023;-82
2021/06/06 00:54:26;;;;;;;11.23;8.88;;;435.40;2355.20;;;;;;4976490;28;20066;-81
2021/06/06 00:56:58;;;;;;;13.35;10.38;;;435.40;2355.20;;;;;;4976684;28;20027;-82
2021/06/06 00:59:26;;;;;;;12.67;9.50;;;435.20;2355.20;;;;;;4992784;28;20030;-81
2021/06/06 01:01:53;;;;;;;15.32;10.70;;;435.20;2355.20;;;;;;4976093;28;20081;-82
2021/06/06 01:04:19;;;;;;;14.40;9.38;;;435.20;2355.20;;;;;;4992714;28;20037;-82
2021/06/06 01:06:49;;;;;;;10.98;9.05;;;435.20;2355.20;;;;;;4977204;28;20025;-82
2021/06/06 01:09:18;;;;;;;15.13;10.95;;;435.20;2355.20;;;;;;4975568;28;20034;-82
2021/06/06 01:12:06;;;;;;;12.32;9.80;;;410.30;2355.20;;;;;;4976146;28;20483;-82
2021/06/06 01:14:44;;;;;;;13.18;9.38;;;410.40;2355.20;;;;;;4975997;28;20035;-82
2021/06/06 01:17:36;;;;;;;12.98;9.98;;;410.50;2355.20;;;;;;4975812;28;20054;-82
2021/06/06 01:20:08;;;;;;;11.27;9.13;;;435.20;2355.20;;;;;;4975840;28;20471;-82
2021/06/06 01:22:39;;;;;;;;;;;435.20;2355.20;;;;;;4976042;28;20026;-82
2021/06/06 01:25:23;;;;;;;18.05;9.50;;;435.20;2355.20;;;;;;4977425;28;19910;-83
2021/06/06 01:27:57;;;;;;;11.32;9.63;;;410.40;2355.20;;;;;;4975960;28;20033;-82
2021/06/06 01:30:28;;;;;;;14.75;10.27;;;410.30;2355.20;;;;;;4975729;28;20065;-82
2021/06/06 01:33:06;;;;;;;13.27;9.50;;;410.30;2355.20;;;;;;4975893;28;20038;-82
2021/06/06 01:35:53;;;;;;;10.82;9.25;;;410.30;2355.20;;;;;;4977264;28;20023;-83
2021/06/06 01:38:52;;;;;;;11.57;9.85;;;410.30;2355.20;;;;;;4975608;28;20387;-83
2021/06/06 01:41:21;;;;;;;14.20;9.25;;;410.30;2355.20;;;;;;4967475;28;20042;-82
2021/06/06 01:43:53;;;;;;;12.25;9.75;;;410.30;2355.20;;;;;;4975879;28;20058;-83
2021/06/06 01:46:27;;;;;;;14.20;9.95;;;410.40;2355.20;;;;;;4975614;28;20046;-83
2021/06/06 01:48:56;;;;;;;14.45;10.02;;;410.40;2355.20;;;;;;4975916;28;20092;-83
2021/06/06 01:51:36;;;;;;;11.68;9.10;;;410.40;2355.20;;;;;;4991696;28;20070;-83
2021/06/06 01:54:03;;;;;;;11.55;10.27;;;410.40;2355.20;;;;;;4975853;28;20386;-83
2021/06/06 01:56:33;;;;;;;13.15;10.20;;;410.50;2355.20;;;;;;4975608;28;20391;-83
2021/06/06 01:59:04;;;;;;;15.30;9.80;;;410.20;2355.20;;;;;;4975729;28;20491;-83
2021/06/06 02:01:30;;;;;;;10.23;8.77;;;410.00;2355.20;;;;;;4976569;28;20030;-83
2021/06/06 02:03:58;;;;;;;14.30;9.32;;;410.00;2355.20;;;;;;4976309;28;20031;-83
2021/06/06 02:06:42;;;;;;;10.10;8.95;;;410.00;2355.20;;;;;;4976437;28;20030;-84
2021/06/06 02:09:11;;;;;;;10.98;9.43;;;409.90;2355.20;;;;;;4975375;28;20364;-84
2021/06/06 02:11:51;;;;;;;12.45;8.75;;;409.80;2355.20;;;;;;4974844;28;20033;-84
2021/06/06 02:14:24;;;;;;;11.77;9.07;;;409.70;2355.20;;;;;;4975100;28;20086;-83
2021/06/06 02:16:56;;;;;;;11.15;9.95;;;384.90;2329.60;;;;;;4975214;28;20030;-83
2021/06/06 02:19:25;;;;;;;11.65;9.45;;;384.80;2329.60;;;;;;4974205;28;20038;-84
2021/06/06 02:21:56;;;;;;;12.52;9.88;;;384.90;2329.60;;;;;;4974894;28;20034;-84
2021/06/06 02:24:23;;;;;;;11.98;9.38;;;384.70;2329.60;;;;;;4974950;28;20035;-83
2021/06/06 02:27:17;;;;;;;16.27;10.90;;;409.80;2355.20;;;;;;4975731;28;20023;-84
2021/06/06 02:29:57;;;;;;;16.02;9.77;;;384.30;2329.60;;;;;;4974510;28;20502;-85
2021/06/06 02:32:34;;;;;;;10.50;9.40;;;384.50;2329.60;;;;;;4974622;28;20023;-86
2021/06/06 02:35:16;;;;;;;12.00;9.90;;;384.50;2329.60;;;;;;4974616;28;20035;-84
2021/06/06 02:37:56;;;;;;;14.88;10.23;;;384.60;2329.60;;;;;;4974632;28;20034;-83
2021/06/06 02:40:33;;;;;;;12.02;10.00;;;384.50;2329.60;;;;;;4974242;28;20031;-86
2021/06/06 02:43:12;;;;;;;12.52;9.88;;;384.60;2329.60;;;;;;4974376;28;20113;-84
2021/06/06 02:45:39;;;;;;;12.90;9.30;;;384.70;2329.60;;;;;;4974754;28;20035;-84
2021/06/06 02:48:24;;;;;;;11.82;9.77;;;384.80;2329.60;;;;;;4974361;28;20038;-84
2021/06/06 06:14:54;;;;;;;13.07;9.75;;;435.90;2355.20;;;;;;5123821;27;20543;-83
2021/06/06 06:17:19;;;;;;;14.18;9.27;;;486.40;2380.80;;;;;;5089695;28;20036;-80
2021/06/06 06:19:45;;;;;;;11.07;9.13;;;486.60;2380.80;;;;;;5089842;28;20020;-81
2021/06/06 06:22:11;;;;;;;19.67;11.32;;;486.80;2380.80;;;;;;5089854;28;20028;-81
2021/06/06 06:24:37;;;;;;;13.90;9.38;;;487.00;2380.80;;;;;;5091143;28;20024;-81
2021/06/06 06:27:03;;;;;;;13.95;8.77;;;487.10;2380.80;;;;;;5089755;28;20400;-81
2021/06/06 06:29:29;;;;;;;14.25;9.30;;;487.30;2380.80;;;;;;5089663;28;20025;-81
2021/06/06 06:31:55;;;;;;;11.77;9.25;;;512.10;2380.80;;;;;;5089477;28;20025;-81
2021/06/06 06:34:21;;;;;;;11.70;8.70;;;512.30;2380.80;;;;;;5123735;28;20431;-81
2021/06/06 06:36:47;;;;;;;11.60;8.52;;;512.40;2380.80;;;;;;5089271;28;20024;-81
2021/06/06 06:39:13;;;;;;;9.82;8.23;;;512.60;2380.80;;;;;;5089100;28;20077;-81
2021/06/06 06:41:40;;;;;;;14.00;8.68;;;512.40;2380.80;;;;;;5089122;28;20024;-81
2021/06/06 06:44:06;;;;;;;11.65;8.48;;;563.70;2432.00;;;;;;5090541;28;20031;-81
2021/06/06 06:46:32;;;;;;;14.57;8.63;;;512.90;2380.80;;;;;;5090213;28;20035;-81
2021/06/06 06:48:58;;;;;;;12.07;8.50;;;537.70;2406.40;;;;;;5089201;28;20028;-81
2021/06/06 06:51:26;;;;;;;12.68;8.32;;;537.80;2406.40;;;;;;5089058;28;20032;-80
2021/06/06 06:53:54;;;;;;;11.70;7.68;;;537.90;2406.40;;;;;;5088811;28;20085;-79
2021/06/06 06:56:23;;;;;;;9.63;7.50;;;538.00;2406.40;;;;;;5123120;28;20032;-80
2021/06/06 06:58:49;;;;;;;10.45;7.47;;;538.10;2406.40;;;;;;5088875;28;20448;-81
2021/06/06 07:01:16;;;;;;;11.43;8.65;;;538.20;2406.40;;;;;;5088678;28;20177;-81
2021/06/06 07:03:42;;;;;;;11.15;7.88;;;538.30;2406.40;;;;;;5088865;28;20036;-81
2021/06/06 07:06:08;;;;;;;12.07;7.35;;;538.50;2406.40;;;;;;5090108;28;20537;-81
2021/06/06 07:08:37;;;;;;;12.63;10.07;;;563.30;2432.00;;;;;;5089101;28;20035;-82
2021/06/06 07:11:05;;;;;;;10.93;7.47;;;563.50;2432.00;;;;;;5088735;28;20028;-81
2021/06/06 07:13:32;;;;;;;9.13;7.55;;;563.30;2432.00;;;;;;5088210;28;20124;-82
2021/06/06 07:16:00;;;;;;;12.73;7.95;;;563.40;2432.00;;;;;;5074582;28;20029;-80
2021/06/06 07:18:26;;;;;;;8.35;6.75;;;563.30;2432.00;;;;;;5077942;28;20016;-80
2021/06/06 07:20:55;;;;;;;10.13;7.38;;;563.50;2432.00;;;;;;5108756;28;20051;-80
2021/06/06 07:23:22;;;;;;;9.88;7.40;;;563.70;2432.00;;;;;;5074815;28;20082;-78
2021/06/06 07:25:49;;;;;;;8.75;6.20;;;564.00;2432.00;;;;;;5074849;28;20443;-74
2021/06/06 07:28:20;;;;;;;10.60;6.50;;;563.90;2432.00;;;;;;5075553;28;20039;-74
2021/06/06 07:30:49;;;;;;;8.88;6.20;;;563.90;2432.00;;;;;;5076495;28;20025;-74
2021/06/06 07:33:18;;;;;;;8.10;6.65;;;563.70;2432.00;;;;;;5074753;28;20028;-74
2021/06/06 07:35:44;;;;;;;15.68;7.97;;;563.50;2432.00;;;;;;5075384;28;20386;-74
2021/06/06 07:38:10;;;;;;;16.83;11.93;;;563.60;2432.00;;;;;;5075669;28;20086;-76
2021/06/06 07:40:40;;;;;;;22.80;14.23;;;563.70;2432.00;;;;;;5075865;28;20029;-74
2021/06/06 07:43:07;;;;;;;13.07;9.98;;;564.10;2432.00;;;;;;5074290;28;20492;-74
2021/06/06 07:45:33;;;;;;;11.23;9.52;;;589.00;2432.00;;;;;;5074476;28;20029;-75
2021/06/06 07:48:00;;;;;;;11.30;6.78;;;589.20;2432.00;;;;;;5075626;28;20027;-75
2021/06/06 07:50:30;;;;;;;9.30;7.43;;;589.10;2432.00;;;;;;5074085;28;20366;-74
2021/06/06 07:52:56;;;;;;;10.18;7.75;;;589.10;2432.00;;;;;;5075661;28;20039;-74
2021/06/06 07:55:24;;;;;;;7.90;6.95;;;589.40;2432.00;;;;;;5074074;28;20058;-74
2021/06/06 07:57:51;;;;;;;8.68;6.63;;;589.60;2432.00;;;;;;5074245;28;20028;-74
2021/06/06 08:00:22;;;;;;;10.23;7.25;;;614.40;2432.00;;;;;;5108180;28;20024;-74
2021/06/06 08:02:48;;;;;;;28.98;18.55;;;614.60;2432.00;;;;;;5075365;28;20036;-77
2021/06/06 08:05:15;;;;;;;10.70;8.30;;;614.70;2432.00;;;;;;5073995;28;20029;-76
2021/06/06 08:07:41;;;;;;;8.77;6.43;;;614.70;2432.00;;;;;;5075137;28;20025;-75
2021/06/06 08:10:10;;;;;;;12.18;6.55;;;614.50;2432.00;;;;;;5073669;28;20032;-73
2021/06/06 08:12:36;;;;;;;11.55;7.15;;;614.60;2432.00;;;;;;5073447;28;20032;-74
2021/06/06 08:15:04;;;;;;;10.35;6.40;;;614.90;2432.00;;;;;;5074003;28;20079;-74
2021/06/06 08:17:30;;;;;;;9.98;6.60;;;614.90;2432.00;;;;;;5074790;28;20030;-74
2021/06/06 08:19:55;;;;;;;7.13;5.75;;;614.90;2432.00;;;;;;5075438;28;20033;-74
2021/06/06 08:22:21;;;;;;;9.05;6.32;;;615.00;2432.00;;;;;;5107559;28;20032;-74
2021/06/06 08:24:47;;;;;;;10.90;6.15;;;615.30;2432.00;;;;;;5107361;28;20030;-74
2021/06/06 08:27:13;;;;;;;7.65;6.07;;;640.10;2380.80;;;;;;5074025;28;20029;-74
2021/06/06 08:29:41;;;;;;;9.27;5.90;;;640.10;2380.80;;;;;;5073587;28;20125;-74
2021/06/06 08:32:07;;;;;;;8.75;6.72;;;640.20;2355.20;;;;;;5073190;28;20457;-75
2021/06/06 08:34:33;;;;;;;9.43;5.65;;;640.50;2329.60;;;;;;5074823;28;20103;-75
2021/06/06 08:37:00;;;;;;;7.55;5.15;;;640.60;2329.60;;;;;;5074544;28;20154;-76
2021/06/06 08:39:29;;;;;;;11.68;6.65;;;640.90;2278.40;;;;;;5074406;28;20094;-74
2021/06/06 08:42:18;;;;;;;12.02;10.73;;;640.60;2252.80;;;;;;5073296;28;20028;-75
2021/06/06 08:44:57;;;;;;;9.70;6.03;;;640.40;2252.80;;;;;;5073138;28;20040;-74
2021/06/06 08:47:28;;;;;;;9.90;5.45;;;640.60;2227.20;;;;;;5073348;28;20075;-74
2021/06/06 08:49:59;;;;;;;7.45;5.28;;;640.70;2176.00;;;;;;5073242;28;20031;-74
2021/06/06 08:52:35;;;;;;;16.93;5.87;;;665.60;2201.60;;;;;;5073986;28;20056;-74
2021/06/06 08:55:19;;;;;;;10.25;5.43;;;665.70;2150.40;;;;;;5073147;28;20035;-74
2021/06/06 08:57:52;;;;;;;9.32;6.20;;;640.70;2150.40;;;;;;5073123;28;20035;-74
2021/06/06 09:00:23;;;;;;;8.00;6.32;;;665.80;2201.60;;;;;;5072620;28;20029;-74
2021/06/06 09:03:01;;;;;;;10.40;5.93;;;666.20;2150.40;;;;;;5072897;28;20074;-75
2021/06/06 09:05:40;;;;;;;8.68;5.32;;;666.40;2099.20;;;;;;5073952;28;20028;-76
2021/06/06 09:08:13;;;;;;;8.20;5.97;;;666.30;2099.20;;;;;;5074232;28;20039;-75
2021/06/06 09:10:42;;;;;;;11.68;6.80;;;666.50;2073.60;;;;;;5074217;28;20487;-76
2021/06/06 09:13:11;;;;;;;11.35;8.98;;;691.40;2073.60;;;;;;5072134;28;20052;-75
2021/06/06 09:15:38;;;;;;;9.60;7.90;;;691.60;2073.60;;;;;;5072515;28;20036;-75
2021/06/06 09:18:25;;;;;;;23.10;20.83;;;691.80;2022.40;;;;;;5052646;28;20462;-75
2021/06/06 09:20:53;;;;;;;10.13;8.43;;;692.10;2022.40;;;;;;5059631;28;20020;-75
2021/06/06 09:23:24;;;;;;;10.75;6.75;;;692.10;2022.40;;;;;;5072207;28;20034;-75
2021/06/06 09:26:13;;;;;;;9.40;7.85;;;692.10;1971.20;;;;;;5072278;28;20031;-76
2021/06/06 09:28:48;;;;;;;10.60;8.02;;;691.60;2022.40;;;;;;5064665;28;20032;-75
2021/06/06 09:31:17;;;;;;;9.27;6.53;;;692.10;1971.20;;;;;;5072463;28;20032;-76
2021/06/06 09:33:47;;;;;;;10.52;6.38;;;717.00;1945.60;;;;;;5072312;28;20028;-76
2021/06/06 09:36:27;;;;;;;7.78;5.88;;;691.90;1945.60;;;;;;5073735;28;20025;-76
2021/06/06 09:39:03;;;;;;;7.25;5.53;;;691.80;1920.00;;;;;;5072478;28;20052;-76
2021/06/06 09:41:33;;;;;;;6.95;5.40;;;716.80;1971.20;;;;;;5073398;28;20044;-75
2021/06/06 09:44:14;;;;;;;11.77;10.10;;;692.00;1894.40;;;;;;5072225;28;20028;-75
2021/06/06 09:46:42;;;;;;;8.55;6.22;;;716.90;1920.00;;;;;;5073516;28;20453;-76
2021/06/06 09:49:33;;;;;;;6.82;5.53;;;716.90;1894.40;;;;;;5073174;28;20020;-76
2021/06/06 09:52:24;;;;;;;9.25;5.80;;;717.40;1894.40;;;;;;5072239;28;20028;-76
2021/06/06 09:54:57;;;;;;;7.33;5.93;;;717.60;1894.40;;;;;;5073093;28;20020;-75
2021/06/06 09:57:26;;;;;;;7.15;5.55;;;742.50;1868.80;;;;;;5072281;28;20024;-75
2021/06/06 10:00:02;;;;;;;7.88;5.57;;;717.70;1817.60;;;;;;5072111;28;20032;-76
2021/06/06 10:02:34;;;;;;;12.45;6.57;;;717.70;1817.60;;;;;;5071571;28;20036;-76
2021/06/06 10:05:12;;;;;;;6.78;5.13;;;742.80;1843.20;;;;;;5072128;28;20033;-76
2021/06/06 10:07:55;;;;;;;10.43;7.38;;;742.60;1792.00;;;;;;5073474;28;20024;-76
2021/06/06 10:10:35;;;;;;;9.65;6.80;;;742.80;1843.20;;;;;;5072625;28;20039;-75
2021/06/06 10:13:05;;;;;;;10.93;8.15;;;742.90;1766.40;;;;;;5071509;28;20044;-75
2021/06/06 10:15:42;;;;;;;13.57;9.15;;;742.90;1766.40;;;;;;5071518;28;20036;-75
2021/06/06 10:18:18;;;;;;;13.13;7.28;;;742.80;1740.80;;;;;;5072099;28;20037;-74
2021/06/06 10:20:48;;;;;;;13.05;8.15;;;743.30;1792.00;;;;;;5072011;28;20350;-75
2021/06/06 10:23:22;;;;;;;9.00;6.57;;;743.30;1740.80;;;;;;5071651;28;20040;-74
2021/06/06 10:26:14;;;;;;;7.78;6.20;;;743.00;1740.80;;;;;;5073524;28;20492;-75
2021/06/06 10:28:53;;;;;;;11.82;6.72;;;742.80;1766.40;;;;;;5071884;28;20024;-76
2021/06/06 10:31:22;;;;;;;9.60;6.50;;;742.50;1792.00;;;;;;5071678;28;20481;-76
2021/06/06 10:34:00;;;;;;;8.27;6.22;;;717.70;1766.40;;;;;;5071936;28;20032;-74
2021/06/06 10:36:28;;;;;;;7.07;5.63;;;717.70;1792.00;;;;;;5073135;28;20082;-76
2021/06/06 10:38:54;;;;;;;17.80;6.55;;;742.50;1766.40;;;;;;5072020;28;20028;-77
2021/06/06 10:41:28;;;;;;;17.10;7.53;;;743.00;1740.80;;;;;;5072608;28;20029;-77
2021/06/06 10:44:37;;;;;;;13.35;8.77;;;768.10;1715.20;;;;;;5071582;28;20032;-75
2021/06/06 10:47:19;;;;;;;20.17;12.55;;;768.30;1715.20;;;;;;5071369;28;20068;-75
2021/06/06 10:49:50;;;;;;;;;;;768.60;1689.60;;;;;;5075010;28;20024;-75
2021/06/06 10:52:21;;;;;;;11.80;7.22;;;768.90;1638.40;;;;;;5075177;28;20364;-75
2021/06/06 10:54:49;;;;;;;11.70;7.53;;;793.60;1715.20;;;;;;5075470;28;20032;-76
2021/06/06 10:57:32;;;;;;;7.20;6.47;;;793.60;1689.60;;;;;;5075043;28;20078;-76
2021/06/06 11:00:01;;;;;;;14.65;9.40;;;768.90;1612.80;;;;;;5075404;28;20024;-76
2021/06/06 11:02:39;;;;;;;9.55;8.13;;;793.70;1638.40;;;;;;5076429;28;20020;-75
2021/06/06 11:05:23;;;;;;;14.50;8.90;;;794.00;1638.40;;;;;;5075165;28;20056;-76
2021/06/06 11:07:49;;;;;;;49.63;14.07;;;794.10;1612.80;;;;;;5074897;28;20020;-75
2021/06/06 11:10:18;;;;;;;16.33;6.97;;;794.40;1638.40;;;;;;5075146;28;20050;-73
2021/06/06 11:12:48;;;;;;;13.63;8.20;;;819.30;1536.00;;;;;;5074467;28;20032;-75
2021/06/06 11:15:41;;;;;;;11.23;7.13;;;819.60;1510.40;;;;;;5076390;28;20035;-75
2021/06/06 11:18:20;;;;;;;7.15;6.25;;;794.30;1484.80;;;;;;5075993;28;20029;-75
2021/06/06 11:20:55;;;;;;;10.57;6.65;;;794.20;1536.00;;;;;;5075018;28;20028;-74
2021/06/06 11:23:47;;;;;;;11.85;5.97;;;793.60;1536.00;;;;;;5074839;28;20485;-74
2021/06/06 11:26:33;;;;;;;8.23;6.00;;;768.30;1536.00;;;;;;5074427;28;20115;-75
2021/06/06 11:29:54;;;;;;;6.90;6.20;;;742.80;1612.80;;;;;;5074714;28;20478;-75
2021/06/06 11:32:37;;;;;;;11.18;8.82;;;742.50;1664.00;;;;;;4938850;28;20131;-75
2021/06/06 11:35:21;;;;;;;9.82;7.25;;;742.50;1715.20;;;;;;5075959;28;20024;-75
2021/06/06 11:37:56;;;;;;;7.28;5.53;;;742.40;1689.60;;;;;;5074702;28;20029;-76
2021/06/06 11:40:30;;;;;;;7.63;5.90;;;742.50;1664.00;;;;;;5075740;28;20461;-74
2021/06/06 11:43:31;;;;;;;7.75;6.38;;;742.40;1715.20;;;;;;5076025;28;20082;-74
2021/06/06 11:46:32;;;;;;;8.63;6.50;;;717.70;1664.00;;;;;;5044017;28;20137;-77
2021/06/06 11:49:15;;;;;;;9.15;6.28;;;742.40;1689.60;;;;;;5074399;28;20035;-75
2021/06/06 11:51:45;;;;;;;7.43;6.57;;;742.50;1689.60;;;;;;5074462;28;20031;-75
2021/06/06 11:54:30;;;;;;;10.95;6.20;;;742.60;1689.60;;;;;;5074053;28;20082;-75
2021/06/06 11:57:02;;;;;;;8.07;6.38;;;742.40;1740.80;;;;;;5074228;28;20035;-75
2021/06/06 11:59:37;;;;;;;7.55;6.72;;;717.50;1715.20;;;;;;5075325;28;20021;-74
2021/06/06 12:02:28;;;;;;;11.50;7.10;;;742.50;1740.80;;;;;;5074756;28;20028;-74
2021/06/06 12:04:57;;;;;;;12.18;8.43;;;717.60;1740.80;;;;;;5075750;28;20131;-75
2021/06/06 12:07:30;;;;;;;7.90;6.47;;;742.60;1766.40;;;;;;5075057;28;20029;-75
2021/06/06 12:10:00;;;;;;;7.13;6.00;;;742.90;1740.80;;;;;;5073884;28;20537;-75
2021/06/06 12:12:33;;;;;;;8.48;7.30;;;742.60;1740.80;;;;;;5074952;28;20028;-75
2021/06/06 12:15:17;;;;;;;9.95;7.65;;;743.10;1740.80;;;;;;5075109;28;20117;-75
2021/06/06 12:17:43;;;;;;;7.60;6.07;;;768.10;1664.00;;;;;;5074850;28;20420;-76
2021/06/06 12:20:17;;;;;;;10.20;6.22;;;768.00;1664.00;;;;;;5073720;28;20025;-76
2021/06/06 12:22:43;;;;;;;7.68;6.50;;;768.20;1689.60;;;;;;5073120;28;20174;-75
2021/06/06 12:25:09;;;;;;;8.63;6.80;;;743.30;1664.00;;;;;;5073709;28;20111;-75
2021/06/06 12:27:49;;;;;;;7.82;6.57;;;768.00;1689.60;;;;;;5074891;28;20021;-75
2021/06/06 12:30:26;;;;;;;9.20;6.30;;;743.10;1664.00;;;;;;5073285;28;20066;-75
2021/06/06 12:32:58;;;;;;;8.93;6.32;;;742.90;1664.00;;;;;;5073635;28;20032;-75
2021/06/06 12:35:35;;;;;;;7.15;6.45;;;742.50;1689.60;;;;;;5073220;28;20028;-74
2021/06/06 12:38:03;;;;;;;9.35;7.05;;;742.50;1689.60;;;;;;5073332;28;20024;-75
2021/06/06 12:40:35;;;;;;;10.45;7.47;;;742.40;1689.60;;;;;;5073356;28;20478;-74
2021/06/06 12:43:03;;;;;;;12.57;6.38;;;742.40;1740.80;;;;;;5072957;28;20029;-74
2021/06/06 12:45:30;;;;;;;12.68;7.50;;;742.40;1766.40;;;;;;5074252;28;20082;-75
2021/06/06 12:48:23;;;;;;;9.45;7.50;;;742.40;1740.80;;;;;;5073211;28;20060;-74
2021/06/06 12:50:49;;;;;;;9.63;6.85;;;742.60;1740.80;;;;;;5073194;28;20036;-75
2021/06/06 12:53:14;;;;;;;14.10;9.55;;;742.50;1740.80;;;;;;5072666;28;20037;-75
2021/06/06 12:55:43;;;;;;;12.85;9.20;;;717.60;1740.80;;;;;;5073115;28;20051;-75
2021/06/06 12:58:19;;;;;;;13.05;9.27;;;717.50;1766.40;;;;;;5073695;28;20031;-75
2021/06/06 13:00:51;;;;;;;14.30;8.85;;;717.40;1792.00;;;;;;5074272;28;20389;-75
2021/06/06 13:03:23;;;;;;;;;;;717.10;1766.40;;;;;;5072940;28;20038;-75
2021/06/06 13:05:52;;;;;;;11.90;8.83;;;717.00;1792.00;;;;;;5072792;28;20007;-76
2021/06/06 13:08:35;;;;;;;9.35;8.18;;;716.90;1817.60;;;;;;5072394;28;20056;-76
2021/06/06 13:11:05;;;;;;;10.80;7.60;;;716.90;1843.20;;;;;;5073706;28;20031;-75
2021/06/06 13:13:35;;;;;;;8.27;7.47;;;716.80;1817.60;;;;;;5071572;28;20055;-76
2021/06/06 13:16:38;;;;;;;9.25;7.72;;;716.80;1843.20;;;;;;5072892;28;20155;-75
2021/06/06 13:19:16;;;;;;;9.40;8.15;;;692.10;1792.00;;;;;;5067197;28;20469;-75
2021/06/06 13:21:48;;;;;;;11.20;8.95;;;692.10;1792.00;;;;;;5072413;28;20423;-75
2021/06/06 13:24:24;;;;;;;10.38;8.82;;;692.00;1817.60;;;;;;5072104;28;20119;-74
2021/06/06 13:27:07;;;;;;;13.25;8.93;;;691.80;1817.60;;;;;;5073865;28;20025;-75
2021/06/06 13:29:44;;;;;;;10.40;7.82;;;691.80;1843.20;;;;;;5073701;28;20032;-76
2021/06/06 13:32:17;;;;;;;11.05;8.88;;;691.80;1843.20;;;;;;5072139;28;20579;-75
2021/06/06 13:34:50;;;;;;;12.00;8.45;;;691.80;1868.80;;;;;;5073752;28;20069;-75
2021/06/06 13:37:17;;;;;;;8.85;7.95;;;691.70;1894.40;;;;;;5072393;28;20518;-76
2021/06/06 13:39:45;;;;;;;11.50;8.48;;;691.60;1894.40;;;;;;5071729;28;20028;-75
2021/06/06 13:42:10;;;;;;;10.13;7.70;;;691.40;1894.40;;;;;;5071835;28;20028;-74
2021/06/06 13:44:40;;;;;;;7.82;7.03;;;691.30;1945.60;;;;;;5073450;28;20024;-75
2021/06/06 13:47:06;;;;;;;8.20;7.40;;;691.20;1945.60;;;;;;5071980;28;20036;-76
2021/06/06 13:49:32;;;;;;;9.63;7.20;;;691.40;1945.60;;;;;;5073583;28;20070;-76
2021/06/06 13:51:59;;;;;;;8.75;7.43;;;666.40;1971.20;;;;;;5071889;28;20028;-76
2021/06/06 13:54:26;;;;;;;10.10;8.40;;;666.30;1971.20;;;;;;5072761;28;20060;-76
2021/06/06 13:56:52;;;;;;;9.20;8.00;;;666.20;1996.80;;;;;;5072042;28;20093;-76
2021/06/06 13:59:19;;;;;;;9.57;8.48;;;666.00;2022.40;;;;;;5071542;28;20119;-76
2021/06/06 14:01:46;;;;;;;9.73;8.82;;;665.90;2022.40;;;;;;5072088;28;20029;-76
2021/06/06 14:04:13;;;;;;;10.32;9.18;;;665.70;2073.60;;;;;;5072994;28;20032;-76
2021/06/06 14:06:40;;;;;;;11.25;9.93;;;665.60;2099.20;;;;;;5071703;28;20124;-75
2021/06/06 14:09:11;;;;;;;12.25;9.75;;;640.90;2073.60;;;;;;5072115;28;20028;-74
2021/06/06 14:11:41;;;;;;;11.80;9.40;;;640.70;2048.00;;;;;;5073574;28;20112;-75
2021/06/06 14:14:07;;;;;;;10.30;9.23;;;640.70;2073.60;;;;;;5071544;28;20044;-74
2021/06/06 14:16:37;;;;;;;11.98;8.70;;;640.50;2124.80;;;;;;5072034;28;20488;-80
2021/06/06 14:19:05;;;;;;;10.25;8.65;;;640.30;2124.80;;;;;;5071436;28;20025;-75
2021/06/06 14:21:32;;;;;;;13.18;9.90;;;640.00;2176.00;;;;;;5072502;28;20028;-75
2021/06/06 14:23:59;;;;;;;10.52;9.45;;;615.20;2329.60;;;;;;5071479;28;20377;-75
2021/06/06 14:26:31;;;;;;;12.13;10.80;;;614.80;2406.40;;;;;;5075493;28;20039;-76
2021/06/06 14:28:58;;;;;;;10.15;9.13;;;614.70;2432.00;;;;;;5074308;28;20048;-77
2021/06/06 14:31:25;;;;;;;10.35;9.45;;;614.40;2432.00;;;;;;5075367;28;20032;-76
2021/06/06 14:33:54;;;;;;;11.73;10.57;;;589.60;2432.00;;;;;;5075423;28;21003;-75
2021/06/06 14:36:20;;;;;;;13.93;12.55;;;589.40;2432.00;;;;;;5072937;28;20490;-77
2021/06/06 14:38:46;;;;;;;13.20;11.85;;;589.30;2432.00;;;;;;5075788;28;20047;-76
2021/06/06 14:41:14;;;;;;;13.25;11.85;;;589.10;2432.00;;;;;;5075328;28;20024;-77
2021/06/06 14:43:41;;;;;;;15.75;14.10;;;588.90;2432.00;;;;;;5075544;28;20085;-75
2021/06/06 14:46:08;;;;;;;14.75;13.25;;;588.80;2432.00;;;;;;5077140;28;20041;-76
2021/06/06 14:48:34;;;;;;;13.80;12.35;;;564.00;2432.00;;;;;;5076505;28;20028;-76
2021/06/06 14:51:04;;;;;;;14.35;12.77;;;563.80;2432.00;;;;;;5075431;28;20028;-75
2021/06/06 14:53:32;;;;;;;14.60;13.05;;;563.50;2432.00;;;;;;5075375;28;20060;-76
2021/06/06 14:55:59;;;;;;;15.05;13.43;;;563.50;2432.00;;;;;;5074992;28;20021;-73
2021/06/06 14:58:28;;;;;;;17.40;15.30;;;563.30;2432.00;;;;;;5076419;28;20032;-74
2021/06/06 15:00:57;;;;;;;17.25;15.52;;;538.40;2406.40;;;;;;5076239;28;20024;-76
2021/06/06 15:03:24;;;;;;;16.10;14.52;;;538.30;2406.40;;;;;;5074846;28;20461;-74
2021/06/06 15:05:51;;;;;;;16.60;14.90;;;538.40;2406.40;;;;;;5075142;28;20028;-77
2021/06/06 15:08:19;;;;;;;17.58;15.88;;;538.30;2406.40;;;;;;5075027;28;20024;-76
2021/06/06 15:10:47;;;;;;;17.08;15.43;;;538.40;2406.40;;;;;;5074741;28;20128;-77
2021/06/06 15:13:16;;;;;;;19.48;15.93;;;538.10;2406.40;;;;;;5074977;28;20375;-76
2021/06/06 15:15:42;;;;;;;17.77;16.08;;;538.10;2406.40;;;;;;5075027;28;20024;-75
2021/06/06 15:18:17;;;;;;;17.58;15.88;;;538.10;2406.40;;;;;;5075708;28;20389;-81
2021/06/06 15:20:45;;;;;;;20.80;18.80;;;538.20;2406.40;;;;;;5075149;28;20218;-82
2021/06/06 15:23:11;;;;;;;20.58;18.58;;;538.20;2406.40;;;;;;5074690;28;20039;-84
2021/06/06 15:25:41;;;;;;;17.00;15.30;;;537.90;2406.40;;;;;;5075007;28;20487;-83
2021/06/06 15:28:09;;;;;;;16.17;14.68;;;538.30;2406.40;;;;;;5074987;28;20031;-82
2021/06/06 15:30:36;;;;;;;18.27;16.58;;;538.10;2406.40;;;;;;5074647;28;20032;-81
2021/06/06 15:33:07;;;;;;;18.48;16.77;;;512.90;2380.80;;;;;;5074808;28;20028;-82
2021/06/06 15:35:38;;;;;;;16.38;14.68;;;538.40;2406.40;;;;;;5074379;28;20025;-81
2021/06/06 15:38:06;;;;;;;17.35;15.75;;;538.00;2406.40;;;;;;5074474;28;20458;-83
2021/06/06 15:40:34;;;;;;;17.60;14.95;;;538.00;2406.40;;;;;;5074654;28;20021;-81
2021/06/06 15:43:00;;;;;;;17.63;15.77;;;538.00;2406.40;;;;;;5075494;28;20067;-82
2021/06/06 15:45:26;;;;;;;15.80;14.05;;;538.10;2406.40;;;;;;5074237;28;20382;-81
2021/06/06 15:47:52;;;;;;;18.50;15.90;;;538.00;2406.40;;;;;;5074408;28;20029;-80
2021/06/06 15:50:24;;;;;;;20.30;18.23;;;538.00;2406.40;;;;;;5074406;28;20028;-80
2021/06/06 15:52:50;;;;;;;19.63;17.73;;;537.90;2406.40;;;;;;5075451;28;20031;-83
2021/06/06 15:55:21;;;;;;;21.52;19.42;;;537.90;2406.40;;;;;;5074239;28;20489;-82
2021/06/06 15:57:47;;;;;;;21.75;19.65;;;537.90;2406.40;;;;;;5074457;28;20074;-79